sensor_id;sensor_type;location;lat;lon;timestamp;P1;durP1;ratioP1;P2;durP2;ratioP2
2848;SDS011;59355;52.416;13.412;2022-08-21T00:00:55;8.67;;;8.07;;
2848;SDS011;59355;52.416;13.412;2022-08-21T00:03:22;10.13;;;9.07;;
2848;SDS011;59355;52.416;13.412;2022-08-21T00:05:49;9.53;;;8.83;;
2848;SDS011;59355;52.416;13.412;2022-08-21T00:08:16;9.20;;;8.50;;
2848;SDS011;59355;52.416;13.412;2022-08-21T00:10:44;8.40;;;7.73;;
2848;SDS011;59355;52.416;13.412;2022-08-21T00:13:11;9.20;;;8.40;;
2848;SDS011;59355;52.416;13.412;2022-08-21T00:15:38;11.73;;;10.23;;
2848;SDS011;59355;52.416;13.412;2022-08-21T00:18:06;10.83;;;9.43;;
2848;SDS011;59355;52.416;13.412;2022-08-21T00:20:34;9.03;;;8.33;;
2848;SDS011;59355;52.416;13.412;2022-08-21T00:23:00;9.30;;;8.30;;
2848;SDS011;59355;52.416;13.412;2022-08-21T00:25:26;10.53;;;9.53;;
2848;SDS011;59355;52.416;13.412;2022-08-21T00:27:53;9.77;;;8.50;;
2848;SDS011;59355;52.416;13.412;2022-08-21T00:30:21;9.90;;;8.90;;
2848;SDS011;59355;52.416;13.412;2022-08-21T00:32:49;10.37;;;9.30;;
2848;SDS011;59355;52.416;13.412;2022-08-21T00:35:17;11.40;;;10.20;;
2848;SDS011;59355;52.416;13.412;2022-08-21T00:37:45;11.47;;;10.33;;
2848;SDS011;59355;52.416;13.412;2022-08-21T00:40:12;11.80;;;10.70;;
2848;SDS011;59355;52.416;13.412;2022-08-21T00:42:42;11.07;;;9.97;;
2848;SDS011;59355;52.416;13.412;2022-08-21T00:45:09;10.67;;;9.67;;
2848;SDS011;59355;52.416;13.412;2022-08-21T00:47:36;10.60;;;9.47;;
2848;SDS011;59355;52.416;13.412;2022-08-21T00:50:03;10.33;;;9.30;;
2848;SDS011;59355;52.416;13.412;2022-08-21T00:52:32;12.00;;;10.30;;
2848;SDS011;59355;52.416;13.412;2022-08-21T00:55:01;10.90;;;9.87;;
2848;SDS011;59355;52.416;13.412;2022-08-21T00:57:29;9.97;;;9.07;;
2848;SDS011;59355;52.416;13.412;2022-08-21T00:59:59;9.93;;;8.93;;
2848;SDS011;59355;52.416;13.412;2022-08-21T01:02:27;10.47;;;9.33;;
2848;SDS011;59355;52.416;13.412;2022-08-21T01:04:53;12.27;;;10.97;;
2848;SDS011;59355;52.416;13.412;2022-08-21T01:07:20;10.23;;;9.33;;
2848;SDS011;59355;52.416;13.412;2022-08-21T01:09:46;10.67;;;9.60;;
2848;SDS011;59355;52.416;13.412;2022-08-21T01:12:13;11.83;;;10.27;;
2848;SDS011;59355;52.416;13.412;2022-08-21T01:14:40;10.33;;;9.27;;
2848;SDS011;59355;52.416;13.412;2022-08-21T01:17:08;10.17;;;9.17;;
2848;SDS011;59355;52.416;13.412;2022-08-21T01:19:36;9.60;;;8.80;;
2848;SDS011;59355;52.416;13.412;2022-08-21T01:22:03;10.27;;;9.07;;
2848;SDS011;59355;52.416;13.412;2022-08-21T01:24:29;10.33;;;9.30;;
2848;SDS011;59355;52.416;13.412;2022-08-21T01:26:57;14.93;;;9.50;;
2848;SDS011;59355;52.416;13.412;2022-08-21T01:32:04;10.53;;;9.43;;
2848;SDS011;59355;52.416;13.412;2022-08-21T01:34:34;10.10;;;9.00;;
2848;SDS011;59355;52.416;13.412;2022-08-21T01:37:02;9.47;;;8.67;;
2848;SDS011;59355;52.416;13.412;2022-08-21T01:39:29;8.60;;;7.80;;
2848;SDS011;59355;52.416;13.412;2022-08-21T01:41:55;12.97;;;10.07;;
2848;SDS011;59355;52.416;13.412;2022-08-21T01:44:21;9.80;;;8.80;;
2848;SDS011;59355;52.416;13.412;2022-08-21T01:46:48;10.50;;;9.53;;
2848;SDS011;59355;52.416;13.412;2022-08-21T01:49:15;11.87;;;9.80;;
2848;SDS011;59355;52.416;13.412;2022-08-21T01:51:41;10.77;;;9.87;;
2848;SDS011;59355;52.416;13.412;2022-08-21T01:54:08;10.80;;;9.70;;
2848;SDS011;59355;52.416;13.412;2022-08-21T01:56:35;11.53;;;10.33;;
2848;SDS011;59355;52.416;13.412;2022-08-21T01:59:02;10.03;;;9.03;;
2848;SDS011;59355;52.416;13.412;2022-08-21T02:01:28;14.23;;;9.40;;
2848;SDS011;59355;52.416;13.412;2022-08-21T02:03:54;12.90;;;9.93;;
2848;SDS011;59355;52.416;13.412;2022-08-21T02:06:20;9.43;;;8.53;;
2848;SDS011;59355;52.416;13.412;2022-08-21T02:08:47;10.43;;;9.33;;
2848;SDS011;59355;52.416;13.412;2022-08-21T02:11:13;8.97;;;8.17;;
2848;SDS011;59355;52.416;13.412;2022-08-21T02:13:39;10.80;;;9.70;;
2848;SDS011;59355;52.416;13.412;2022-08-21T02:16:06;9.80;;;8.80;;
2848;SDS011;59355;52.416;13.412;2022-08-21T02:18:33;9.53;;;8.60;;
2848;SDS011;59355;52.416;13.412;2022-08-21T02:21:00;9.90;;;9.00;;
2848;SDS011;59355;52.416;13.412;2022-08-21T02:23:26;9.90;;;8.97;;
2848;SDS011;59355;52.416;13.412;2022-08-21T02:25:52;9.40;;;8.50;;
2848;SDS011;59355;52.416;13.412;2022-08-21T02:28:19;8.80;;;7.90;;
2848;SDS011;59355;52.416;13.412;2022-08-21T02:30:46;10.37;;;9.07;;
2848;SDS011;59355;52.416;13.412;2022-08-21T02:33:13;9.53;;;8.30;;
2848;SDS011;59355;52.416;13.412;2022-08-21T02:35:40;9.70;;;8.33;;
2848;SDS011;59355;52.416;13.412;2022-08-21T02:38:12;7.83;;;7.20;;
2848;SDS011;59355;52.416;13.412;2022-08-21T02:40:45;12.97;;;8.63;;
2848;SDS011;59355;52.416;13.412;2022-08-21T02:43:12;8.27;;;7.47;;
2848;SDS011;59355;52.416;13.412;2022-08-21T02:45:39;11.70;;;8.50;;
2848;SDS011;59355;52.416;13.412;2022-08-21T02:48:07;8.40;;;7.53;;
2848;SDS011;59355;52.416;13.412;2022-08-21T02:50:39;9.80;;;7.53;;
2848;SDS011;59355;52.416;13.412;2022-08-21T02:53:10;6.90;;;6.30;;
2848;SDS011;59355;52.416;13.412;2022-08-21T02:55:42;9.93;;;6.60;;
2848;SDS011;59355;52.416;13.412;2022-08-21T02:58:10;8.27;;;6.97;;
2848;SDS011;59355;52.416;13.412;2022-08-21T03:00:36;7.57;;;6.80;;
2848;SDS011;59355;52.416;13.412;2022-08-21T03:03:03;7.60;;;6.90;;
2848;SDS011;59355;52.416;13.412;2022-08-21T03:05:31;6.70;;;6.10;;
2848;SDS011;59355;52.416;13.412;2022-08-21T03:07:59;7.07;;;6.07;;
2848;SDS011;59355;52.416;13.412;2022-08-21T03:10:27;9.10;;;6.30;;
2848;SDS011;59355;52.416;13.412;2022-08-21T03:12:53;7.03;;;6.40;;
2848;SDS011;59355;52.416;13.412;2022-08-21T03:15:21;8.33;;;6.57;;
2848;SDS011;59355;52.416;13.412;2022-08-21T03:17:49;6.97;;;6.23;;
2848;SDS011;59355;52.416;13.412;2022-08-21T03:20:17;7.20;;;5.60;;
2848;SDS011;59355;52.416;13.412;2022-08-21T03:22:44;9.10;;;6.87;;
2848;SDS011;59355;52.416;13.412;2022-08-21T03:25:11;6.63;;;5.90;;
2848;SDS011;59355;52.416;13.412;2022-08-21T03:27:37;10.83;;;6.20;;
2848;SDS011;59355;52.416;13.412;2022-08-21T03:30:04;7.00;;;6.30;;
2848;SDS011;59355;52.416;13.412;2022-08-21T03:32:32;8.17;;;5.80;;
2848;SDS011;59355;52.416;13.412;2022-08-21T03:34:59;6.17;;;5.60;;
2848;SDS011;59355;52.416;13.412;2022-08-21T03:37:25;6.70;;;6.10;;
2848;SDS011;59355;52.416;13.412;2022-08-21T03:39:52;7.40;;;6.13;;
2848;SDS011;59355;52.416;13.412;2022-08-21T03:42:18;6.70;;;5.90;;
2848;SDS011;59355;52.416;13.412;2022-08-21T03:44:44;14.60;;;6.23;;
2848;SDS011;59355;52.416;13.412;2022-08-21T03:47:10;7.23;;;6.63;;
2848;SDS011;59355;52.416;13.412;2022-08-21T03:49:36;8.67;;;6.03;;
2848;SDS011;59355;52.416;13.412;2022-08-21T03:52:03;5.60;;;5.03;;
2848;SDS011;59355;52.416;13.412;2022-08-21T03:54:30;8.47;;;6.13;;
2848;SDS011;59355;52.416;13.412;2022-08-21T03:56:56;8.97;;;5.93;;
2848;SDS011;59355;52.416;13.412;2022-08-21T03:59:22;8.30;;;6.33;;
2848;SDS011;59355;52.416;13.412;2022-08-21T04:02:01;8.97;;;5.53;;
2848;SDS011;59355;52.416;13.412;2022-08-21T04:04:29;7.10;;;5.30;;
2848;SDS011;59355;52.416;13.412;2022-08-21T04:06:56;7.43;;;5.43;;
2848;SDS011;59355;52.416;13.412;2022-08-21T04:09:22;6.97;;;5.73;;
2848;SDS011;59355;52.416;13.412;2022-08-21T04:11:49;5.97;;;4.93;;
2848;SDS011;59355;52.416;13.412;2022-08-21T04:14:16;8.30;;;6.93;;
2848;SDS011;59355;52.416;13.412;2022-08-21T04:16:43;7.50;;;5.50;;
2848;SDS011;59355;52.416;13.412;2022-08-21T04:19:09;6.83;;;6.13;;
2848;SDS011;59355;52.416;13.412;2022-08-21T04:21:36;6.83;;;5.60;;
2848;SDS011;59355;52.416;13.412;2022-08-21T04:24:03;8.20;;;6.23;;
2848;SDS011;59355;52.416;13.412;2022-08-21T04:26:30;8.80;;;6.30;;
2848;SDS011;59355;52.416;13.412;2022-08-21T04:28:57;6.90;;;6.13;;
2848;SDS011;59355;52.416;13.412;2022-08-21T04:31:24;8.30;;;5.40;;
2848;SDS011;59355;52.416;13.412;2022-08-21T04:33:50;6.30;;;5.70;;
2848;SDS011;59355;52.416;13.412;2022-08-21T04:36:16;5.77;;;5.27;;
2848;SDS011;59355;52.416;13.412;2022-08-21T04:38:43;7.40;;;5.40;;
2848;SDS011;59355;52.416;13.412;2022-08-21T04:41:09;8.40;;;5.83;;
2848;SDS011;59355;52.416;13.412;2022-08-21T04:43:35;6.70;;;5.10;;
2848;SDS011;59355;52.416;13.412;2022-08-21T04:46:03;8.90;;;5.87;;
2848;SDS011;59355;52.416;13.412;2022-08-21T04:48:29;6.97;;;5.30;;
2848;SDS011;59355;52.416;13.412;2022-08-21T04:51:00;7.53;;;5.00;;
2848;SDS011;59355;52.416;13.412;2022-08-21T04:53:37;5.90;;;4.90;;
2848;SDS011;59355;52.416;13.412;2022-08-21T04:56:43;7.40;;;6.27;;
2848;SDS011;59355;52.416;13.412;2022-08-21T04:59:11;5.47;;;4.70;;
2848;SDS011;59355;52.416;13.412;2022-08-21T05:01:41;8.53;;;4.90;;
2848;SDS011;59355;52.416;13.412;2022-08-21T05:04:10;7.00;;;5.07;;
2848;SDS011;59355;52.416;13.412;2022-08-21T05:06:38;7.70;;;6.03;;
2848;SDS011;59355;52.416;13.412;2022-08-21T05:09:07;6.77;;;5.33;;
2848;SDS011;59355;52.416;13.412;2022-08-21T05:11:35;9.00;;;4.90;;
2848;SDS011;59355;52.416;13.412;2022-08-21T05:14:02;7.03;;;5.27;;
2848;SDS011;59355;52.416;13.412;2022-08-21T05:16:28;5.37;;;4.70;;
2848;SDS011;59355;52.416;13.412;2022-08-21T05:18:54;6.27;;;4.70;;
2848;SDS011;59355;52.416;13.412;2022-08-21T05:21:21;7.13;;;4.40;;
2848;SDS011;59355;52.416;13.412;2022-08-21T05:23:47;8.87;;;5.50;;
2848;SDS011;59355;52.416;13.412;2022-08-21T05:26:13;7.53;;;5.20;;
2848;SDS011;59355;52.416;13.412;2022-08-21T05:28:39;4.93;;;4.50;;
2848;SDS011;59355;52.416;13.412;2022-08-21T05:31:05;5.20;;;4.43;;
2848;SDS011;59355;52.416;13.412;2022-08-21T05:33:31;8.23;;;5.20;;
2848;SDS011;59355;52.416;13.412;2022-08-21T05:35:57;6.90;;;5.27;;
2848;SDS011;59355;52.416;13.412;2022-08-21T05:38:23;6.27;;;5.17;;
2848;SDS011;59355;52.416;13.412;2022-08-21T05:40:51;6.60;;;5.70;;
2848;SDS011;59355;52.416;13.412;2022-08-21T05:43:17;5.27;;;4.77;;
2848;SDS011;59355;52.416;13.412;2022-08-21T05:45:43;7.23;;;5.37;;
2848;SDS011;59355;52.416;13.412;2022-08-21T05:48:10;5.73;;;5.20;;
2848;SDS011;59355;52.416;13.412;2022-08-21T05:50:38;6.50;;;5.37;;
2848;SDS011;59355;52.416;13.412;2022-08-21T05:53:05;6.67;;;4.80;;
2848;SDS011;59355;52.416;13.412;2022-08-21T05:55:31;7.77;;;4.87;;
2848;SDS011;59355;52.416;13.412;2022-08-21T05:57:57;5.47;;;4.97;;
2848;SDS011;59355;52.416;13.412;2022-08-21T06:00:24;5.97;;;4.77;;
2848;SDS011;59355;52.416;13.412;2022-08-21T06:02:50;5.60;;;5.10;;
2848;SDS011;59355;52.416;13.412;2022-08-21T06:05:16;6.40;;;4.90;;
2848;SDS011;59355;52.416;13.412;2022-08-21T06:07:43;7.97;;;5.50;;
2848;SDS011;59355;52.416;13.412;2022-08-21T06:10:09;6.10;;;4.53;;
2848;SDS011;59355;52.416;13.412;2022-08-21T06:12:36;8.33;;;5.40;;
2848;SDS011;59355;52.416;13.412;2022-08-21T06:15:02;6.23;;;4.73;;
2848;SDS011;59355;52.416;13.412;2022-08-21T06:17:29;8.83;;;4.87;;
2848;SDS011;59355;52.416;13.412;2022-08-21T06:19:55;5.47;;;4.90;;
2848;SDS011;59355;52.416;13.412;2022-08-21T06:22:21;9.60;;;5.43;;
2848;SDS011;59355;52.416;13.412;2022-08-21T06:24:47;6.63;;;4.73;;
2848;SDS011;59355;52.416;13.412;2022-08-21T06:27:13;6.50;;;5.00;;
2848;SDS011;59355;52.416;13.412;2022-08-21T06:29:43;5.33;;;4.37;;
2848;SDS011;59355;52.416;13.412;2022-08-21T06:32:11;9.20;;;5.50;;
2848;SDS011;59355;52.416;13.412;2022-08-21T06:34:38;5.70;;;3.97;;
2848;SDS011;59355;52.416;13.412;2022-08-21T06:37:05;5.90;;;4.70;;
2848;SDS011;59355;52.416;13.412;2022-08-21T06:39:32;5.17;;;4.30;;
2848;SDS011;59355;52.416;13.412;2022-08-21T06:41:59;7.20;;;4.80;;
2848;SDS011;59355;52.416;13.412;2022-08-21T06:44:25;6.17;;;4.50;;
2848;SDS011;59355;52.416;13.412;2022-08-21T06:46:51;8.53;;;4.27;;
2848;SDS011;59355;52.416;13.412;2022-08-21T06:49:17;9.67;;;5.70;;
2848;SDS011;59355;52.416;13.412;2022-08-21T06:51:43;6.93;;;4.87;;
2848;SDS011;59355;52.416;13.412;2022-08-21T06:54:10;7.27;;;4.33;;
2848;SDS011;59355;52.416;13.412;2022-08-21T06:56:36;10.27;;;4.63;;
2848;SDS011;59355;52.416;13.412;2022-08-21T06:59:04;8.20;;;3.90;;
2848;SDS011;59355;52.416;13.412;2022-08-21T07:01:31;5.23;;;4.00;;
2848;SDS011;59355;52.416;13.412;2022-08-21T07:03:58;8.17;;;4.53;;
2848;SDS011;59355;52.416;13.412;2022-08-21T07:06:24;7.87;;;4.27;;
2848;SDS011;59355;52.416;13.412;2022-08-21T07:08:50;4.60;;;3.80;;
2848;SDS011;59355;52.416;13.412;2022-08-21T07:11:18;7.70;;;4.13;;
2848;SDS011;59355;52.416;13.412;2022-08-21T07:13:46;5.23;;;4.33;;
2848;SDS011;59355;52.416;13.412;2022-08-21T07:16:12;8.33;;;3.93;;
2848;SDS011;59355;52.416;13.412;2022-08-21T07:18:38;3.27;;;2.87;;
2848;SDS011;59355;52.416;13.412;2022-08-21T07:21:05;5.53;;;3.30;;
2848;SDS011;59355;52.416;13.412;2022-08-21T07:23:33;4.73;;;3.23;;
2848;SDS011;59355;52.416;13.412;2022-08-21T07:26:03;7.57;;;3.47;;
2848;SDS011;59355;52.416;13.412;2022-08-21T07:28:30;7.13;;;3.87;;
2848;SDS011;59355;52.416;13.412;2022-08-21T07:30:57;4.27;;;3.07;;
2848;SDS011;59355;52.416;13.412;2022-08-21T07:33:25;3.97;;;2.87;;
2848;SDS011;59355;52.416;13.412;2022-08-21T07:35:53;6.67;;;3.10;;
2848;SDS011;59355;52.416;13.412;2022-08-21T07:38:20;5.57;;;2.87;;
2848;SDS011;59355;52.416;13.412;2022-08-21T07:40:47;7.10;;;3.33;;
2848;SDS011;59355;52.416;13.412;2022-08-21T07:43:14;6.47;;;3.40;;
2848;SDS011;59355;52.416;13.412;2022-08-21T07:45:43;5.93;;;3.40;;
2848;SDS011;59355;52.416;13.412;2022-08-21T07:48:10;9.13;;;3.07;;
2848;SDS011;59355;52.416;13.412;2022-08-21T07:50:36;5.83;;;3.00;;
2848;SDS011;59355;52.416;13.412;2022-08-21T07:53:02;6.63;;;3.70;;
2848;SDS011;59355;52.416;13.412;2022-08-21T07:55:29;8.10;;;3.00;;
2848;SDS011;59355;52.416;13.412;2022-08-21T07:57:55;5.20;;;2.90;;
2848;SDS011;59355;52.416;13.412;2022-08-21T08:00:23;5.73;;;3.30;;
2848;SDS011;59355;52.416;13.412;2022-08-21T08:02:51;5.63;;;3.27;;
2848;SDS011;59355;52.416;13.412;2022-08-21T08:05:20;6.73;;;2.63;;
2848;SDS011;59355;52.416;13.412;2022-08-21T08:07:48;4.23;;;2.80;;
2848;SDS011;59355;52.416;13.412;2022-08-21T08:10:14;8.03;;;3.10;;
2848;SDS011;59355;52.416;13.412;2022-08-21T08:12:42;5.30;;;3.37;;
2848;SDS011;59355;52.416;13.412;2022-08-21T08:15:11;9.80;;;3.83;;
2848;SDS011;59355;52.416;13.412;2022-08-21T08:17:43;4.03;;;2.67;;
2848;SDS011;59355;52.416;13.412;2022-08-21T08:20:10;5.63;;;2.90;;
2848;SDS011;59355;52.416;13.412;2022-08-21T08:22:38;3.60;;;2.70;;
2848;SDS011;59355;52.416;13.412;2022-08-21T08:25:07;5.73;;;3.13;;
2848;SDS011;59355;52.416;13.412;2022-08-21T08:27:35;4.83;;;3.03;;
2848;SDS011;59355;52.416;13.412;2022-08-21T08:30:02;4.77;;;3.23;;
2848;SDS011;59355;52.416;13.412;2022-08-21T08:32:29;4.37;;;2.70;;
2848;SDS011;59355;52.416;13.412;2022-08-21T08:34:55;4.73;;;2.90;;
2848;SDS011;59355;52.416;13.412;2022-08-21T08:37:21;5.30;;;3.40;;
2848;SDS011;59355;52.416;13.412;2022-08-21T08:39:47;6.63;;;3.80;;
2848;SDS011;59355;52.416;13.412;2022-08-21T08:42:16;12.37;;;3.07;;
2848;SDS011;59355;52.416;13.412;2022-08-21T08:44:48;7.83;;;3.20;;
2848;SDS011;59355;52.416;13.412;2022-08-21T08:47:20;5.23;;;3.13;;
2848;SDS011;59355;52.416;13.412;2022-08-21T08:49:49;7.33;;;3.23;;
2848;SDS011;59355;52.416;13.412;2022-08-21T08:52:33;6.60;;;3.50;;
2848;SDS011;59355;52.416;13.412;2022-08-21T08:57:33;5.47;;;3.20;;
2848;SDS011;59355;52.416;13.412;2022-08-21T09:00:03;5.90;;;2.80;;
2848;SDS011;59355;52.416;13.412;2022-08-21T09:02:33;4.00;;;2.90;;
2848;SDS011;59355;52.416;13.412;2022-08-21T09:05:00;5.13;;;2.77;;
2848;SDS011;59355;52.416;13.412;2022-08-21T09:10:00;7.03;;;2.80;;
2848;SDS011;59355;52.416;13.412;2022-08-21T09:18:39;5.60;;;2.70;;
2848;SDS011;59355;52.416;13.412;2022-08-21T09:27:07;6.67;;;2.90;;
2848;SDS011;59355;52.416;13.412;2022-08-21T09:29:40;4.90;;;2.47;;
2848;SDS011;59355;52.416;13.412;2022-08-21T09:32:15;3.93;;;2.50;;
2848;SDS011;59355;52.416;13.412;2022-08-21T09:34:54;7.50;;;2.87;;
2848;SDS011;59355;52.416;13.412;2022-08-21T09:37:26;6.53;;;2.40;;
2848;SDS011;59355;52.416;13.412;2022-08-21T09:39:54;4.80;;;2.90;;
2848;SDS011;59355;52.416;13.412;2022-08-21T09:42:27;4.77;;;2.73;;
2848;SDS011;59355;52.416;13.412;2022-08-21T09:45:11;5.50;;;2.77;;
2848;SDS011;59355;52.416;13.412;2022-08-21T09:47:43;8.23;;;3.40;;
2848;SDS011;59355;52.416;13.412;2022-08-21T09:50:15;3.73;;;3.07;;
2848;SDS011;59355;52.416;13.412;2022-08-21T09:52:44;4.67;;;2.90;;
2848;SDS011;59355;52.416;13.412;2022-08-21T09:55:15;6.67;;;3.57;;
2848;SDS011;59355;52.416;13.412;2022-08-21T09:58:03;7.90;;;2.87;;
2848;SDS011;59355;52.416;13.412;2022-08-21T10:00:31;2.80;;;2.07;;
2848;SDS011;59355;52.416;13.412;2022-08-21T10:03:11;5.40;;;2.40;;
2848;SDS011;59355;52.416;13.412;2022-08-21T10:05:38;6.73;;;2.60;;
2848;SDS011;59355;52.416;13.412;2022-08-21T10:08:15;5.20;;;2.70;;
2848;SDS011;59355;52.416;13.412;2022-08-21T10:16:00;5.10;;;2.80;;
2848;SDS011;59355;52.416;13.412;2022-08-21T10:18:41;4.30;;;2.50;;
2848;SDS011;59355;52.416;13.412;2022-08-21T10:23:58;4.37;;;3.10;;
2848;SDS011;59355;52.416;13.412;2022-08-21T10:26:52;5.77;;;3.30;;
2848;SDS011;59355;52.416;13.412;2022-08-21T10:29:39;4.67;;;2.60;;
2848;SDS011;59355;52.416;13.412;2022-08-21T10:35:26;5.27;;;2.90;;
2848;SDS011;59355;52.416;13.412;2022-08-21T10:38:24;5.30;;;3.00;;
2848;SDS011;59355;52.416;13.412;2022-08-21T10:44:02;6.23;;;2.57;;
2848;SDS011;59355;52.416;13.412;2022-08-21T10:46:36;3.57;;;2.27;;
2848;SDS011;59355;52.416;13.412;2022-08-21T10:49:44;5.03;;;2.87;;
2848;SDS011;59355;52.416;13.412;2022-08-21T10:52:28;3.80;;;2.20;;
2848;SDS011;59355;52.416;13.412;2022-08-21T10:55:09;3.57;;;2.30;;
2848;SDS011;59355;52.416;13.412;2022-08-21T10:57:49;3.20;;;2.20;;
2848;SDS011;59355;52.416;13.412;2022-08-21T11:00:29;2.00;;;1.70;;
2848;SDS011;59355;52.416;13.412;2022-08-21T11:03:17;3.23;;;2.10;;
2848;SDS011;59355;52.416;13.412;2022-08-21T11:05:53;4.93;;;2.00;;
2848;SDS011;59355;52.416;13.412;2022-08-21T11:11:10;2.53;;;2.00;;
2848;SDS011;59355;52.416;13.412;2022-08-21T11:13:45;2.03;;;1.70;;
2848;SDS011;59355;52.416;13.412;2022-08-21T11:19:09;3.00;;;1.63;;
2848;SDS011;59355;52.416;13.412;2022-08-21T11:21:42;2.90;;;1.80;;
2848;SDS011;59355;52.416;13.412;2022-08-21T11:24:30;3.30;;;2.23;;
2848;SDS011;59355;52.416;13.412;2022-08-21T11:29:38;3.43;;;2.37;;
2848;SDS011;59355;52.416;13.412;2022-08-21T11:35:02;2.90;;;1.80;;
2848;SDS011;59355;52.416;13.412;2022-08-21T11:43:07;2.20;;;1.60;;
2848;SDS011;59355;52.416;13.412;2022-08-21T11:46:47;1.90;;;1.70;;
2848;SDS011;59355;52.416;13.412;2022-08-21T11:49:47;3.43;;;1.80;;
2848;SDS011;59355;52.416;13.412;2022-08-21T11:52:39;3.03;;;1.73;;
2848;SDS011;59355;52.416;13.412;2022-08-21T11:55:18;2.00;;;1.80;;
2848;SDS011;59355;52.416;13.412;2022-08-21T12:00:33;4.67;;;2.00;;
2848;SDS011;59355;52.416;13.412;2022-08-21T12:03:08;3.13;;;2.03;;
2848;SDS011;59355;52.416;13.412;2022-08-21T12:05:56;2.40;;;2.10;;
2848;SDS011;59355;52.416;13.412;2022-08-21T12:08:33;3.63;;;1.90;;
2848;SDS011;59355;52.416;13.412;2022-08-21T12:11:03;2.53;;;2.30;;
2848;SDS011;59355;52.416;13.412;2022-08-21T12:13:30;2.00;;;1.60;;
2848;SDS011;59355;52.416;13.412;2022-08-21T12:16:05;2.40;;;1.90;;
2848;SDS011;59355;52.416;13.412;2022-08-21T12:18:36;3.07;;;2.03;;
2848;SDS011;59355;52.416;13.412;2022-08-21T12:21:23;2.70;;;2.10;;
2848;SDS011;59355;52.416;13.412;2022-08-21T12:29:22;2.40;;;1.80;;
2848;SDS011;59355;52.416;13.412;2022-08-21T12:31:56;2.73;;;1.80;;
2848;SDS011;59355;52.416;13.412;2022-08-21T12:34:32;2.90;;;2.00;;
2848;SDS011;59355;52.416;13.412;2022-08-21T12:37:03;2.43;;;1.77;;
2848;SDS011;59355;52.416;13.412;2022-08-21T12:39:42;3.70;;;1.80;;
2848;SDS011;59355;52.416;13.412;2022-08-21T12:42:20;2.97;;;1.90;;
2848;SDS011;59355;52.416;13.412;2022-08-21T12:44:50;2.30;;;1.70;;
2848;SDS011;59355;52.416;13.412;2022-08-21T12:49:54;2.10;;;1.70;;
2848;SDS011;59355;52.416;13.412;2022-08-21T12:52:34;2.87;;;1.77;;
2848;SDS011;59355;52.416;13.412;2022-08-21T12:55:05;3.50;;;1.97;;
2848;SDS011;59355;52.416;13.412;2022-08-21T12:57:36;2.73;;;1.50;;
2848;SDS011;59355;52.416;13.412;2022-08-21T13:00:07;2.43;;;1.93;;
2848;SDS011;59355;52.416;13.412;2022-08-21T13:02:42;2.13;;;1.50;;
2848;SDS011;59355;52.416;13.412;2022-08-21T13:05:16;4.57;;;3.10;;
2848;SDS011;59355;52.416;13.412;2022-08-21T13:07:56;3.80;;;1.83;;
2848;SDS011;59355;52.416;13.412;2022-08-21T13:10:26;2.57;;;1.90;;
2848;SDS011;59355;52.416;13.412;2022-08-21T13:12:56;3.03;;;2.07;;
2848;SDS011;59355;52.416;13.412;2022-08-21T13:15:26;4.13;;;1.80;;
2848;SDS011;59355;52.416;13.412;2022-08-21T13:17:57;2.80;;;2.03;;
2848;SDS011;59355;52.416;13.412;2022-08-21T13:20:33;3.80;;;2.30;;
2848;SDS011;59355;52.416;13.412;2022-08-21T13:23:02;3.23;;;2.23;;
2848;SDS011;59355;52.416;13.412;2022-08-21T13:25:34;3.23;;;1.90;;
2848;SDS011;59355;52.416;13.412;2022-08-21T13:28:05;4.43;;;2.20;;
2848;SDS011;59355;52.416;13.412;2022-08-21T13:30:47;7.40;;;2.47;;
2848;SDS011;59355;52.416;13.412;2022-08-21T13:33:15;3.77;;;2.30;;
2848;SDS011;59355;52.416;13.412;2022-08-21T13:35:49;4.40;;;2.80;;
2848;SDS011;59355;52.416;13.412;2022-08-21T13:38:19;3.00;;;2.37;;
2848;SDS011;59355;52.416;13.412;2022-08-21T13:40:57;3.60;;;2.50;;
2848;SDS011;59355;52.416;13.412;2022-08-21T13:43:30;2.83;;;2.40;;
2848;SDS011;59355;52.416;13.412;2022-08-21T13:45:58;6.23;;;2.53;;
2848;SDS011;59355;52.416;13.412;2022-08-21T13:48:28;2.50;;;2.20;;
2848;SDS011;59355;52.416;13.412;2022-08-21T13:50:57;4.90;;;2.90;;
2848;SDS011;59355;52.416;13.412;2022-08-21T13:53:31;3.30;;;2.30;;
2848;SDS011;59355;52.416;13.412;2022-08-21T13:56:00;3.50;;;2.20;;
2848;SDS011;59355;52.416;13.412;2022-08-21T13:58:28;3.40;;;2.40;;
2848;SDS011;59355;52.416;13.412;2022-08-21T14:01:15;5.00;;;2.70;;
2848;SDS011;59355;52.416;13.412;2022-08-21T14:04:14;2.47;;;2.00;;
2848;SDS011;59355;52.416;13.412;2022-08-21T14:06:46;3.40;;;3.00;;
2848;SDS011;59355;52.416;13.412;2022-08-21T14:09:20;4.40;;;2.70;;
2848;SDS011;59355;52.416;13.412;2022-08-21T14:12:02;4.20;;;2.90;;
2848;SDS011;59355;52.416;13.412;2022-08-21T14:14:38;3.73;;;2.70;;
2848;SDS011;59355;52.416;13.412;2022-08-21T14:17:14;5.30;;;2.77;;
2848;SDS011;59355;52.416;13.412;2022-08-21T14:19:55;6.27;;;2.77;;
2848;SDS011;59355;52.416;13.412;2022-08-21T14:25:08;9.73;;;2.67;;
2848;SDS011;59355;52.416;13.412;2022-08-21T14:27:52;4.00;;;2.97;;
2848;SDS011;59355;52.416;13.412;2022-08-21T14:30:31;5.77;;;3.00;;
2848;SDS011;59355;52.416;13.412;2022-08-21T14:32:59;5.07;;;2.67;;
2848;SDS011;59355;52.416;13.412;2022-08-21T14:35:26;5.80;;;3.40;;
2848;SDS011;59355;52.416;13.412;2022-08-21T14:37:52;6.17;;;3.47;;
2848;SDS011;59355;52.416;13.412;2022-08-21T14:40:20;4.23;;;2.90;;
2848;SDS011;59355;52.416;13.412;2022-08-21T14:42:50;3.03;;;2.40;;
2848;SDS011;59355;52.416;13.412;2022-08-21T14:45:23;3.73;;;2.87;;
2848;SDS011;59355;52.416;13.412;2022-08-21T14:47:52;6.23;;;3.27;;
2848;SDS011;59355;52.416;13.412;2022-08-21T14:50:18;4.97;;;2.87;;
2848;SDS011;59355;52.416;13.412;2022-08-21T14:52:45;5.80;;;3.00;;
2848;SDS011;59355;52.416;13.412;2022-08-21T14:55:12;4.47;;;3.13;;
2848;SDS011;59355;52.416;13.412;2022-08-21T14:57:40;9.43;;;3.17;;
2848;SDS011;59355;52.416;13.412;2022-08-21T15:00:09;3.80;;;2.90;;
2848;SDS011;59355;52.416;13.412;2022-08-21T15:02:36;3.77;;;2.40;;
2848;SDS011;59355;52.416;13.412;2022-08-21T15:05:02;5.07;;;2.77;;
2848;SDS011;59355;52.416;13.412;2022-08-21T15:07:29;6.17;;;3.60;;
2848;SDS011;59355;52.416;13.412;2022-08-21T15:09:55;3.60;;;3.00;;
2848;SDS011;59355;52.416;13.412;2022-08-21T15:12:22;7.57;;;3.13;;
2848;SDS011;59355;52.416;13.412;2022-08-21T15:14:49;3.53;;;2.73;;
2848;SDS011;59355;52.416;13.412;2022-08-21T15:17:15;3.23;;;2.70;;
2848;SDS011;59355;52.416;13.412;2022-08-21T15:19:41;4.00;;;2.27;;
2848;SDS011;59355;52.416;13.412;2022-08-21T15:22:07;3.67;;;2.60;;
2848;SDS011;59355;52.416;13.412;2022-08-21T15:24:33;5.47;;;2.90;;
2848;SDS011;59355;52.416;13.412;2022-08-21T15:27:00;3.40;;;2.80;;
2848;SDS011;59355;52.416;13.412;2022-08-21T15:29:28;6.63;;;3.13;;
2848;SDS011;59355;52.416;13.412;2022-08-21T15:31:56;3.77;;;3.03;;
2848;SDS011;59355;52.416;13.412;2022-08-21T15:34:24;9.33;;;3.77;;
2848;SDS011;59355;52.416;13.412;2022-08-21T15:36:54;4.53;;;2.93;;
2848;SDS011;59355;52.416;13.412;2022-08-21T15:39:20;4.53;;;2.87;;
2848;SDS011;59355;52.416;13.412;2022-08-21T15:41:46;5.67;;;2.70;;
2848;SDS011;59355;52.416;13.412;2022-08-21T15:44:13;6.77;;;3.40;;
2848;SDS011;59355;52.416;13.412;2022-08-21T15:46:40;7.20;;;3.40;;
2848;SDS011;59355;52.416;13.412;2022-08-21T15:49:07;4.20;;;3.73;;
2848;SDS011;59355;52.416;13.412;2022-08-21T15:51:33;9.10;;;3.97;;
2848;SDS011;59355;52.416;13.412;2022-08-21T15:54:00;6.67;;;4.73;;
2848;SDS011;59355;52.416;13.412;2022-08-21T15:56:27;5.23;;;4.00;;
2848;SDS011;59355;52.416;13.412;2022-08-21T15:59:05;7.90;;;7.07;;
2848;SDS011;59355;52.416;13.412;2022-08-21T16:01:34;6.03;;;5.13;;
2848;SDS011;59355;52.416;13.412;2022-08-21T16:04:01;10.50;;;6.90;;
2848;SDS011;59355;52.416;13.412;2022-08-21T16:06:28;4.50;;;4.10;;